Etusivu
METAR-TAF:

METAR-TAF

Lentoasemat :

Newnan-Coweta County Airport

Newnan, Georgia, Yhdysvallat

Leveyspiiri: 33-18-44N, Pituuspiiri: 084-46-13W, korkeus merenpinnasta: 296 m

Tämänhetkinen sää

Tämä raportti tehtiin 19 minuuttia sitten, kello 03.35 UTC
Tuuli 4 kn luoteesta
Lämpötila 7°C
Kosteus 61%
Ilmanpaine 1022 hPa
Näkyvyys: 16.1 km
selkeää

METAR: KCCO 290335Z AUTO 32004KT 10SM CLR 07/00 A3018 RMK AO2 T00700004

Aika: 22:54 (03:54 UTC)


TAF: puuttuu

Säähavainnot ja -ennusteet yli 4000 lentoasemalta (METAR- ja TAF-raportit).

Käytössä olevat sääasemat on merkitty karttaan keltaisilla ja punaisilla pisteillä.

Aseta hiiri pisteen päälle nähdäksesi sääaseman nimen.

Klikkaa sitten nähdäksesi säähavainnot ja -ennusteet.

Kartan vaihtaminen: klikkaa mustalla rastilla varustettuja vihreitä pisteitä, niin voit zoomata sisään; viivalla varustettua vihreää pistettä, niin voit zoomata ulos tai vihreitä nuolia, niin pääset viereisille kartoille.


METAR-TAF: